Terminal Aerodrome Forecast
Issued by NWS

Current Version | Previous Version | Text Only | Print | Product List | Glossary Off
Versions: 1 2 3 4 5 6 7 8 9 10 11 12

723
FTUS41 KILN 232335 AAA
TAFLCK
TAF AMD
KLCK 232335Z 2400/2424 05008KT P6SM BKN200
     FM240800 05006KT P6SM SCT250
     FM241800 08010KT P6SM BKN050=

USA.gov is the U.S. government's official web portal to all federal, state and local government web resources and services.